sensor_id;sensor_type;location;lat;lon;timestamp;P1;durP1;ratioP1;P2;durP2;ratioP2
40046;SDS011;31510;48.122;11.576;2022-12-20T00:00:25;14.02;;;6.63;;
40046;SDS011;31510;48.122;11.576;2022-12-20T00:02:51;16.85;;;6.80;;
40046;SDS011;31510;48.122;11.576;2022-12-20T00:05:16;12.95;;;7.10;;
40046;SDS011;31510;48.122;11.576;2022-12-20T00:07:41;15.25;;;7.95;;
40046;SDS011;31510;48.122;11.576;2022-12-20T00:10:07;14.80;;;7.95;;
40046;SDS011;31510;48.122;11.576;2022-12-20T00:12:32;13.05;;;7.22;;
40046;SDS011;31510;48.122;11.576;2022-12-20T00:14:58;14.00;;;8.55;;
40046;SDS011;31510;48.122;11.576;2022-12-20T00:17:23;12.43;;;6.55;;
40046;SDS011;31510;48.122;11.576;2022-12-20T00:19:48;13.23;;;6.32;;
40046;SDS011;31510;48.122;11.576;2022-12-20T00:22:14;9.43;;;5.68;;
40046;SDS011;31510;48.122;11.576;2022-12-20T00:24:39;11.38;;;5.78;;
40046;SDS011;31510;48.122;11.576;2022-12-20T00:27:04;14.55;;;7.22;;
40046;SDS011;31510;48.122;11.576;2022-12-20T00:29:29;12.40;;;5.85;;
40046;SDS011;31510;48.122;11.576;2022-12-20T00:31:55;15.38;;;6.78;;
40046;SDS011;31510;48.122;11.576;2022-12-20T00:34:20;9.82;;;5.40;;
40046;SDS011;31510;48.122;11.576;2022-12-20T00:36:45;11.73;;;5.55;;
40046;SDS011;31510;48.122;11.576;2022-12-20T00:39:11;11.93;;;6.05;;
40046;SDS011;31510;48.122;11.576;2022-12-20T00:41:36;13.98;;;6.32;;
40046;SDS011;31510;48.122;11.576;2022-12-20T00:44:02;9.50;;;5.38;;
40046;SDS011;31510;48.122;11.576;2022-12-20T00:46:28;11.20;;;5.53;;
40046;SDS011;31510;48.122;11.576;2022-12-20T00:48:55;10.02;;;5.30;;
40046;SDS011;31510;48.122;11.576;2022-12-20T00:51:22;11.18;;;5.18;;
40046;SDS011;31510;48.122;11.576;2022-12-20T00:53:51;7.82;;;5.03;;
40046;SDS011;31510;48.122;11.576;2022-12-20T00:56:17;12.23;;;5.45;;
40046;SDS011;31510;48.122;11.576;2022-12-20T00:58:43;13.43;;;5.45;;
40046;SDS011;31510;48.122;11.576;2022-12-20T01:01:19;10.18;;;5.20;;
40046;SDS011;31510;48.122;11.576;2022-12-20T01:03:47;11.70;;;5.53;;
40046;SDS011;31510;48.122;11.576;2022-12-20T01:06:13;10.38;;;4.47;;
40046;SDS011;31510;48.122;11.576;2022-12-20T01:08:38;9.18;;;4.13;;
40046;SDS011;31510;48.122;11.576;2022-12-20T01:11:05;8.82;;;4.03;;
40046;SDS011;31510;48.122;11.576;2022-12-20T01:13:38;8.02;;;4.38;;
40046;SDS011;31510;48.122;11.576;2022-12-20T01:16:06;7.93;;;3.60;;
40046;SDS011;31510;48.122;11.576;2022-12-20T01:18:32;8.73;;;3.67;;
40046;SDS011;31510;48.122;11.576;2022-12-20T01:21:05;6.30;;;3.35;;
40046;SDS011;31510;48.122;11.576;2022-12-20T01:23:32;6.68;;;3.55;;
40046;SDS011;31510;48.122;11.576;2022-12-20T01:25:58;6.97;;;4.05;;
40046;SDS011;31510;48.122;11.576;2022-12-20T01:28:25;10.32;;;4.05;;
40046;SDS011;31510;48.122;11.576;2022-12-20T01:30:50;8.13;;;4.63;;
40046;SDS011;31510;48.122;11.576;2022-12-20T01:33:15;6.57;;;3.70;;
40046;SDS011;31510;48.122;11.576;2022-12-20T01:35:41;6.28;;;3.28;;
40046;SDS011;31510;48.122;11.576;2022-12-20T01:38:06;9.35;;;3.63;;
40046;SDS011;31510;48.122;11.576;2022-12-20T01:40:31;5.43;;;2.92;;
40046;SDS011;31510;48.122;11.576;2022-12-20T01:42:57;8.00;;;4.15;;
40046;SDS011;31510;48.122;11.576;2022-12-20T01:45:26;7.78;;;3.38;;
40046;SDS011;31510;48.122;11.576;2022-12-20T01:47:54;5.03;;;2.50;;
40046;SDS011;31510;48.122;11.576;2022-12-20T01:50:21;4.85;;;2.50;;
40046;SDS011;31510;48.122;11.576;2022-12-20T01:52:47;5.40;;;2.65;;
40046;SDS011;31510;48.122;11.576;2022-12-20T01:55:21;6.40;;;3.70;;
40046;SDS011;31510;48.122;11.576;2022-12-20T01:57:56;9.48;;;4.03;;
40046;SDS011;31510;48.122;11.576;2022-12-20T02:00:25;9.05;;;4.05;;
40046;SDS011;31510;48.122;11.576;2022-12-20T02:02:51;7.15;;;4.53;;
40046;SDS011;31510;48.122;11.576;2022-12-20T02:05:17;8.13;;;3.75;;
40046;SDS011;31510;48.122;11.576;2022-12-20T02:07:44;7.25;;;3.92;;
40046;SDS011;31510;48.122;11.576;2022-12-20T02:10:13;7.35;;;3.78;;
40046;SDS011;31510;48.122;11.576;2022-12-20T02:12:43;6.32;;;3.13;;
40046;SDS011;31510;48.122;11.576;2022-12-20T02:23:38;5.43;;;2.78;;
40046;SDS011;31510;48.122;11.576;2022-12-20T02:26:45;6.50;;;3.50;;
40046;SDS011;31510;48.122;11.576;2022-12-20T02:34:47;6.35;;;3.08;;
40046;SDS011;31510;48.122;11.576;2022-12-20T02:37:13;4.93;;;2.58;;
40046;SDS011;31510;48.122;11.576;2022-12-20T02:39:39;5.50;;;3.10;;
40046;SDS011;31510;48.122;11.576;2022-12-20T02:42:09;4.35;;;2.25;;
40046;SDS011;31510;48.122;11.576;2022-12-20T02:44:38;4.97;;;2.50;;
40046;SDS011;31510;48.122;11.576;2022-12-20T02:47:33;4.72;;;2.53;;
40046;SDS011;31510;48.122;11.576;2022-12-20T02:50:04;9.27;;;2.88;;
40046;SDS011;31510;48.122;11.576;2022-12-20T02:52:31;6.55;;;2.95;;
40046;SDS011;31510;48.122;11.576;2022-12-20T02:54:57;7.03;;;3.10;;
40046;SDS011;31510;48.122;11.576;2022-12-20T02:57:26;5.22;;;3.30;;
40046;SDS011;31510;48.122;11.576;2022-12-20T03:00:03;5.63;;;2.97;;
40046;SDS011;31510;48.122;11.576;2022-12-20T03:02:32;5.60;;;3.78;;
40046;SDS011;31510;48.122;11.576;2022-12-20T03:05:19;7.40;;;3.00;;
40046;SDS011;31510;48.122;11.576;2022-12-20T03:07:46;7.55;;;3.55;;
40046;SDS011;31510;48.122;11.576;2022-12-20T03:10:11;7.57;;;3.38;;
40046;SDS011;31510;48.122;11.576;2022-12-20T03:12:37;8.88;;;3.55;;
40046;SDS011;31510;48.122;11.576;2022-12-20T03:15:02;7.50;;;3.45;;
40046;SDS011;31510;48.122;11.576;2022-12-20T03:17:27;6.60;;;2.90;;
40046;SDS011;31510;48.122;11.576;2022-12-20T03:19:53;6.85;;;3.33;;
40046;SDS011;31510;48.122;11.576;2022-12-20T03:22:18;7.70;;;3.50;;
40046;SDS011;31510;48.122;11.576;2022-12-20T03:24:43;10.38;;;3.80;;
40046;SDS011;31510;48.122;11.576;2022-12-20T03:27:08;7.22;;;3.65;;
40046;SDS011;31510;48.122;11.576;2022-12-20T03:29:34;5.03;;;2.80;;
40046;SDS011;31510;48.122;11.576;2022-12-20T03:31:59;5.00;;;2.72;;
40046;SDS011;31510;48.122;11.576;2022-12-20T03:34:24;7.70;;;2.97;;
40046;SDS011;31510;48.122;11.576;2022-12-20T03:36:50;6.25;;;2.63;;
40046;SDS011;31510;48.122;11.576;2022-12-20T03:39:15;5.38;;;2.97;;
40046;SDS011;31510;48.122;11.576;2022-12-20T03:41:40;6.32;;;3.03;;
40046;SDS011;31510;48.122;11.576;2022-12-20T03:44:06;6.00;;;3.30;;
40046;SDS011;31510;48.122;11.576;2022-12-20T03:46:31;5.70;;;2.78;;
40046;SDS011;31510;48.122;11.576;2022-12-20T03:48:56;4.38;;;2.35;;
40046;SDS011;31510;48.122;11.576;2022-12-20T03:51:22;7.03;;;2.78;;
40046;SDS011;31510;48.122;11.576;2022-12-20T03:53:47;3.83;;;2.40;;
40046;SDS011;31510;48.122;11.576;2022-12-20T03:56:12;6.07;;;2.58;;
40046;SDS011;31510;48.122;11.576;2022-12-20T03:58:38;4.85;;;2.33;;
40046;SDS011;31510;48.122;11.576;2022-12-20T04:01:15;4.80;;;2.30;;
40046;SDS011;31510;48.122;11.576;2022-12-20T04:03:43;7.13;;;2.42;;
40046;SDS011;31510;48.122;11.576;2022-12-20T04:06:09;4.13;;;2.10;;
40046;SDS011;31510;48.122;11.576;2022-12-20T04:08:34;5.07;;;1.98;;
40046;SDS011;31510;48.122;11.576;2022-12-20T04:10:59;5.15;;;2.00;;
40046;SDS011;31510;48.122;11.576;2022-12-20T04:13:40;4.25;;;2.15;;
40046;SDS011;31510;48.122;11.576;2022-12-20T04:16:06;5.45;;;2.47;;
40046;SDS011;31510;48.122;11.576;2022-12-20T04:18:31;5.38;;;2.35;;
40046;SDS011;31510;48.122;11.576;2022-12-20T04:20:58;6.35;;;2.30;;
40046;SDS011;31510;48.122;11.576;2022-12-20T04:23:25;6.32;;;2.53;;
40046;SDS011;31510;48.122;11.576;2022-12-20T04:25:50;3.95;;;2.35;;
40046;SDS011;31510;48.122;11.576;2022-12-20T04:28:15;3.53;;;1.83;;
40046;SDS011;31510;48.122;11.576;2022-12-20T04:30:41;5.05;;;2.15;;
40046;SDS011;31510;48.122;11.576;2022-12-20T04:33:06;5.20;;;2.00;;
40046;SDS011;31510;48.122;11.576;2022-12-20T04:35:31;2.97;;;1.75;;
40046;SDS011;31510;48.122;11.576;2022-12-20T04:37:56;3.40;;;1.70;;
40046;SDS011;31510;48.122;11.576;2022-12-20T04:40:22;13.52;;;2.03;;
40046;SDS011;31510;48.122;11.576;2022-12-20T04:42:47;4.80;;;2.30;;
40046;SDS011;31510;48.122;11.576;2022-12-20T04:45:12;5.15;;;2.20;;
40046;SDS011;31510;48.122;11.576;2022-12-20T04:47:38;4.63;;;2.28;;
40046;SDS011;31510;48.122;11.576;2022-12-20T04:50:04;4.43;;;1.83;;
40046;SDS011;31510;48.122;11.576;2022-12-20T04:52:30;3.58;;;2.03;;
40046;SDS011;31510;48.122;11.576;2022-12-20T04:55:14;5.03;;;2.20;;
40046;SDS011;31510;48.122;11.576;2022-12-20T04:57:40;3.38;;;1.80;;
40046;SDS011;31510;48.122;11.576;2022-12-20T05:00:05;4.53;;;2.15;;
40046;SDS011;31510;48.122;11.576;2022-12-20T05:02:31;4.13;;;2.05;;
40046;SDS011;31510;48.122;11.576;2022-12-20T05:04:56;4.63;;;2.13;;
40046;SDS011;31510;48.122;11.576;2022-12-20T05:07:21;6.00;;;2.42;;
40046;SDS011;31510;48.122;11.576;2022-12-20T05:09:47;3.50;;;1.90;;
40046;SDS011;31510;48.122;11.576;2022-12-20T05:12:12;4.60;;;1.80;;
40046;SDS011;31510;48.122;11.576;2022-12-20T05:14:37;4.22;;;2.15;;
40046;SDS011;31510;48.122;11.576;2022-12-20T05:17:03;4.07;;;1.70;;
40046;SDS011;31510;48.122;11.576;2022-12-20T05:19:28;3.97;;;1.77;;
40046;SDS011;31510;48.122;11.576;2022-12-20T05:21:53;4.93;;;2.58;;
40046;SDS011;31510;48.122;11.576;2022-12-20T05:24:37;4.43;;;2.35;;
40046;SDS011;31510;48.122;11.576;2022-12-20T05:27:21;3.85;;;1.67;;
40046;SDS011;31510;48.122;11.576;2022-12-20T05:29:46;3.90;;;2.10;;
40046;SDS011;31510;48.122;11.576;2022-12-20T05:32:11;3.65;;;1.98;;
40046;SDS011;31510;48.122;11.576;2022-12-20T05:34:36;3.65;;;1.58;;
40046;SDS011;31510;48.122;11.576;2022-12-20T05:37:02;2.92;;;1.75;;
40046;SDS011;31510;48.122;11.576;2022-12-20T05:39:27;5.30;;;2.13;;
40046;SDS011;31510;48.122;11.576;2022-12-20T05:41:53;4.07;;;1.75;;
40046;SDS011;31510;48.122;11.576;2022-12-20T05:44:18;4.20;;;1.75;;
40046;SDS011;31510;48.122;11.576;2022-12-20T05:46:46;3.03;;;1.80;;
40046;SDS011;31510;48.122;11.576;2022-12-20T05:49:11;3.95;;;1.88;;
40046;SDS011;31510;48.122;11.576;2022-12-20T05:51:36;3.35;;;1.80;;
40046;SDS011;31510;48.122;11.576;2022-12-20T05:54:02;4.45;;;1.67;;
40046;SDS011;31510;48.122;11.576;2022-12-20T05:56:27;3.95;;;1.50;;
40046;SDS011;31510;48.122;11.576;2022-12-20T05:58:52;4.72;;;1.70;;
40046;SDS011;31510;48.122;11.576;2022-12-20T06:01:18;4.10;;;2.17;;
40046;SDS011;31510;48.122;11.576;2022-12-20T06:03:44;3.80;;;2.10;;
40046;SDS011;31510;48.122;11.576;2022-12-20T06:06:09;3.97;;;2.00;;
40046;SDS011;31510;48.122;11.576;2022-12-20T06:08:35;4.15;;;1.95;;
40046;SDS011;31510;48.122;11.576;2022-12-20T06:11:00;3.38;;;2.30;;
40046;SDS011;31510;48.122;11.576;2022-12-20T06:13:28;3.53;;;1.95;;
40046;SDS011;31510;48.122;11.576;2022-12-20T06:15:53;5.80;;;2.33;;
40046;SDS011;31510;48.122;11.576;2022-12-20T06:18:19;3.85;;;1.98;;
40046;SDS011;31510;48.122;11.576;2022-12-20T06:20:49;4.25;;;1.63;;
40046;SDS011;31510;48.122;11.576;2022-12-20T06:23:15;4.93;;;1.98;;
40046;SDS011;31510;48.122;11.576;2022-12-20T06:25:40;3.97;;;1.60;;
40046;SDS011;31510;48.122;11.576;2022-12-20T06:28:05;4.72;;;2.25;;
40046;SDS011;31510;48.122;11.576;2022-12-20T06:30:31;8.32;;;3.10;;
40046;SDS011;31510;48.122;11.576;2022-12-20T06:32:58;12.55;;;3.63;;
40046;SDS011;31510;48.122;11.576;2022-12-20T06:35:23;9.23;;;3.70;;
40046;SDS011;31510;48.122;11.576;2022-12-20T06:37:48;11.50;;;3.05;;
40046;SDS011;31510;48.122;11.576;2022-12-20T06:40:14;5.78;;;2.80;;
40046;SDS011;31510;48.122;11.576;2022-12-20T06:42:39;4.05;;;2.60;;
40046;SDS011;31510;48.122;11.576;2022-12-20T06:45:05;7.18;;;2.40;;
40046;SDS011;31510;48.122;11.576;2022-12-20T06:47:31;5.32;;;2.22;;
40046;SDS011;31510;48.122;11.576;2022-12-20T06:49:56;5.80;;;2.40;;
40046;SDS011;31510;48.122;11.576;2022-12-20T06:52:22;6.82;;;2.72;;
40046;SDS011;31510;48.122;11.576;2022-12-20T06:54:47;6.35;;;2.70;;
40046;SDS011;31510;48.122;11.576;2022-12-20T06:57:12;6.10;;;2.25;;
40046;SDS011;31510;48.122;11.576;2022-12-20T06:59:38;4.60;;;2.20;;
40046;SDS011;31510;48.122;11.576;2022-12-20T07:02:03;7.65;;;2.55;;
40046;SDS011;31510;48.122;11.576;2022-12-20T07:04:29;5.50;;;3.08;;
40046;SDS011;31510;48.122;11.576;2022-12-20T07:06:54;5.03;;;2.55;;
40046;SDS011;31510;48.122;11.576;2022-12-20T07:09:21;6.28;;;2.58;;
40046;SDS011;31510;48.122;11.576;2022-12-20T07:11:46;4.45;;;2.00;;
40046;SDS011;31510;48.122;11.576;2022-12-20T07:14:12;4.72;;;2.00;;
40046;SDS011;31510;48.122;11.576;2022-12-20T07:16:37;4.88;;;2.33;;
40046;SDS011;31510;48.122;11.576;2022-12-20T07:19:05;4.97;;;2.20;;
40046;SDS011;31510;48.122;11.576;2022-12-20T07:21:30;7.32;;;2.30;;
40046;SDS011;31510;48.122;11.576;2022-12-20T07:23:56;5.18;;;2.38;;
40046;SDS011;31510;48.122;11.576;2022-12-20T07:26:21;4.15;;;2.30;;
40046;SDS011;31510;48.122;11.576;2022-12-20T07:28:46;6.75;;;2.47;;
40046;SDS011;31510;48.122;11.576;2022-12-20T07:31:11;6.63;;;2.15;;
40046;SDS011;31510;48.122;11.576;2022-12-20T07:33:37;5.88;;;2.67;;
40046;SDS011;31510;48.122;11.576;2022-12-20T07:36:07;6.07;;;2.38;;
40046;SDS011;31510;48.122;11.576;2022-12-20T07:38:36;6.57;;;2.85;;
40046;SDS011;31510;48.122;11.576;2022-12-20T07:41:14;7.82;;;2.35;;
40046;SDS011;31510;48.122;11.576;2022-12-20T07:43:46;6.85;;;2.75;;
40046;SDS011;31510;48.122;11.576;2022-12-20T07:46:14;5.05;;;2.55;;
40046;SDS011;31510;48.122;11.576;2022-12-20T07:48:40;6.05;;;2.65;;
40046;SDS011;31510;48.122;11.576;2022-12-20T07:51:07;4.63;;;2.30;;
40046;SDS011;31510;48.122;11.576;2022-12-20T07:53:35;5.75;;;2.47;;
40046;SDS011;31510;48.122;11.576;2022-12-20T07:56:02;6.03;;;2.80;;
40046;SDS011;31510;48.122;11.576;2022-12-20T07:58:30;7.90;;;3.38;;
40046;SDS011;31510;48.122;11.576;2022-12-20T08:00:57;6.50;;;3.28;;
40046;SDS011;31510;48.122;11.576;2022-12-20T08:03:24;8.98;;;3.28;;
40046;SDS011;31510;48.122;11.576;2022-12-20T08:05:56;8.30;;;2.90;;
40046;SDS011;31510;48.122;11.576;2022-12-20T08:08:23;10.90;;;2.60;;
40046;SDS011;31510;48.122;11.576;2022-12-20T08:10:49;4.60;;;2.35;;
40046;SDS011;31510;48.122;11.576;2022-12-20T08:13:15;8.10;;;3.42;;
40046;SDS011;31510;48.122;11.576;2022-12-20T08:15:41;6.47;;;2.72;;
40046;SDS011;31510;48.122;11.576;2022-12-20T08:18:06;6.03;;;2.45;;
40046;SDS011;31510;48.122;11.576;2022-12-20T08:20:32;6.95;;;2.58;;
40046;SDS011;31510;48.122;11.576;2022-12-20T08:22:57;6.57;;;3.20;;
40046;SDS011;31510;48.122;11.576;2022-12-20T08:25:23;5.03;;;2.92;;
40046;SDS011;31510;48.122;11.576;2022-12-20T08:27:49;6.40;;;2.95;;
40046;SDS011;31510;48.122;11.576;2022-12-20T08:30:14;5.57;;;3.08;;
40046;SDS011;31510;48.122;11.576;2022-12-20T08:32:40;6.30;;;2.88;;
40046;SDS011;31510;48.122;11.576;2022-12-20T08:35:05;8.05;;;3.40;;
40046;SDS011;31510;48.122;11.576;2022-12-20T08:37:31;5.00;;;2.78;;
40046;SDS011;31510;48.122;11.576;2022-12-20T08:39:57;6.50;;;3.40;;
40046;SDS011;31510;48.122;11.576;2022-12-20T08:42:22;5.13;;;2.70;;
40046;SDS011;31510;48.122;11.576;2022-12-20T08:44:47;6.93;;;3.15;;
40046;SDS011;31510;48.122;11.576;2022-12-20T08:47:12;9.95;;;3.25;;
40046;SDS011;31510;48.122;11.576;2022-12-20T08:49:38;8.27;;;3.78;;
40046;SDS011;31510;48.122;11.576;2022-12-20T08:52:03;8.77;;;3.53;;
40046;SDS011;31510;48.122;11.576;2022-12-20T08:54:29;5.07;;;2.95;;
40046;SDS011;31510;48.122;11.576;2022-12-20T08:56:54;7.13;;;4.70;;
40046;SDS011;31510;48.122;11.576;2022-12-20T08:59:19;7.25;;;3.72;;
40046;SDS011;31510;48.122;11.576;2022-12-20T09:01:45;7.53;;;3.20;;
40046;SDS011;31510;48.122;11.576;2022-12-20T09:04:10;8.65;;;3.50;;
40046;SDS011;31510;48.122;11.576;2022-12-20T09:06:36;9.32;;;3.65;;
40046;SDS011;31510;48.122;11.576;2022-12-20T09:09:02;5.95;;;3.60;;
40046;SDS011;31510;48.122;11.576;2022-12-20T09:11:29;5.75;;;3.25;;
40046;SDS011;31510;48.122;11.576;2022-12-20T09:13:55;7.57;;;4.47;;
40046;SDS011;31510;48.122;11.576;2022-12-20T09:16:23;7.35;;;4.15;;
40046;SDS011;31510;48.122;11.576;2022-12-20T09:18:51;8.48;;;4.97;;
40046;SDS011;31510;48.122;11.576;2022-12-20T09:21:18;5.78;;;3.17;;
40046;SDS011;31510;48.122;11.576;2022-12-20T09:23:44;7.30;;;3.90;;
40046;SDS011;31510;48.122;11.576;2022-12-20T09:26:11;7.43;;;3.65;;
40046;SDS011;31510;48.122;11.576;2022-12-20T09:28:38;8.98;;;4.13;;
40046;SDS011;31510;48.122;11.576;2022-12-20T09:31:04;7.30;;;3.05;;
40046;SDS011;31510;48.122;11.576;2022-12-20T09:33:31;7.72;;;3.35;;
40046;SDS011;31510;48.122;11.576;2022-12-20T09:35:57;4.85;;;2.72;;
40046;SDS011;31510;48.122;11.576;2022-12-20T09:38:23;4.63;;;2.55;;
40046;SDS011;31510;48.122;11.576;2022-12-20T09:40:50;6.22;;;2.50;;
40046;SDS011;31510;48.122;11.576;2022-12-20T09:43:17;3.88;;;2.17;;
40046;SDS011;31510;48.122;11.576;2022-12-20T09:45:45;5.05;;;2.50;;
40046;SDS011;31510;48.122;11.576;2022-12-20T09:48:16;10.43;;;3.25;;
40046;SDS011;31510;48.122;11.576;2022-12-20T09:59:19;6.40;;;2.88;;
40046;SDS011;31510;48.122;11.576;2022-12-20T10:01:46;7.13;;;2.83;;
40046;SDS011;31510;48.122;11.576;2022-12-20T10:04:23;5.97;;;2.55;;
40046;SDS011;31510;48.122;11.576;2022-12-20T10:13:11;4.25;;;2.50;;
40046;SDS011;31510;48.122;11.576;2022-12-20T10:21:18;6.37;;;3.43;;
40046;SDS011;31510;48.122;11.576;2022-12-20T10:26:36;8.95;;;3.42;;
40046;SDS011;31510;48.122;11.576;2022-12-20T10:29:01;9.18;;;3.67;;
40046;SDS011;31510;48.122;11.576;2022-12-20T10:31:29;8.93;;;3.55;;
40046;SDS011;31510;48.122;11.576;2022-12-20T10:33:58;8.18;;;3.97;;
40046;SDS011;31510;48.122;11.576;2022-12-20T10:36:25;8.13;;;3.42;;
40046;SDS011;31510;48.122;11.576;2022-12-20T10:38:59;5.95;;;3.75;;
40046;SDS011;31510;48.122;11.576;2022-12-20T10:41:26;9.75;;;3.28;;
40046;SDS011;31510;48.122;11.576;2022-12-20T10:44:23;8.80;;;3.72;;
40046;SDS011;31510;48.122;11.576;2022-12-20T10:47:00;7.25;;;3.70;;
40046;SDS011;31510;48.122;11.576;2022-12-20T10:49:35;8.65;;;3.65;;
40046;SDS011;31510;48.122;11.576;2022-12-20T10:54:43;6.85;;;3.65;;
40046;SDS011;31510;48.122;11.576;2022-12-20T10:59:41;7.45;;;3.40;;
40046;SDS011;31510;48.122;11.576;2022-12-20T11:02:20;7.43;;;4.18;;
40046;SDS011;31510;48.122;11.576;2022-12-20T11:07:25;7.80;;;3.97;;
40046;SDS011;31510;48.122;11.576;2022-12-20T11:09:55;6.55;;;3.35;;
40046;SDS011;31510;48.122;11.576;2022-12-20T11:12:21;8.68;;;4.22;;
40046;SDS011;31510;48.122;11.576;2022-12-20T11:14:48;8.35;;;4.25;;
40046;SDS011;31510;48.122;11.576;2022-12-20T11:17:26;6.18;;;3.85;;
40046;SDS011;31510;48.122;11.576;2022-12-20T11:20:03;6.57;;;3.13;;
40046;SDS011;31510;48.122;11.576;2022-12-20T11:30:20;6.38;;;4.03;;
40046;SDS011;31510;48.122;11.576;2022-12-20T11:38:51;7.95;;;3.45;;
40046;SDS011;31510;48.122;11.576;2022-12-20T11:41:31;8.52;;;3.58;;
40046;SDS011;31510;48.122;11.576;2022-12-20T11:52:50;8.93;;;3.72;;
40046;SDS011;31510;48.122;11.576;2022-12-20T11:55:23;4.90;;;2.92;;
40046;SDS011;31510;48.122;11.576;2022-12-20T11:57:59;12.68;;;3.63;;
40046;SDS011;31510;48.122;11.576;2022-12-20T12:00:40;9.60;;;3.47;;
40046;SDS011;31510;48.122;11.576;2022-12-20T12:08:48;8.93;;;3.15;;
40046;SDS011;31510;48.122;11.576;2022-12-20T12:11:32;8.40;;;3.40;;
40046;SDS011;31510;48.122;11.576;2022-12-20T12:14:02;7.05;;;3.42;;
40046;SDS011;31510;48.122;11.576;2022-12-20T12:16:34;7.30;;;3.28;;
40046;SDS011;31510;48.122;11.576;2022-12-20T12:19:04;6.13;;;3.17;;
40046;SDS011;31510;48.122;11.576;2022-12-20T12:21:36;7.60;;;3.97;;
40046;SDS011;31510;48.122;11.576;2022-12-20T12:24:16;9.00;;;3.65;;
40046;SDS011;31510;48.122;11.576;2022-12-20T12:29:12;7.90;;;3.58;;
40046;SDS011;31510;48.122;11.576;2022-12-20T12:39:29;8.17;;;2.97;;
40046;SDS011;31510;48.122;11.576;2022-12-20T12:42:12;9.77;;;3.55;;
40046;SDS011;31510;48.122;11.576;2022-12-20T12:44:48;6.18;;;2.63;;
40046;SDS011;31510;48.122;11.576;2022-12-20T12:47:20;6.07;;;2.97;;
40046;SDS011;31510;48.122;11.576;2022-12-20T12:49:58;9.38;;;3.92;;
40046;SDS011;31510;48.122;11.576;2022-12-20T13:00:46;9.80;;;3.30;;
40046;SDS011;31510;48.122;11.576;2022-12-20T13:03:14;7.72;;;3.10;;
40046;SDS011;31510;48.122;11.576;2022-12-20T13:05:58;6.35;;;3.15;;
40046;SDS011;31510;48.122;11.576;2022-12-20T13:11:27;9.67;;;3.17;;
40046;SDS011;31510;48.122;11.576;2022-12-20T13:40:20;11.17;;;4.80;;
40046;SDS011;31510;48.122;11.576;2022-12-20T13:42:58;6.82;;;4.43;;
40046;SDS011;31510;48.122;11.576;2022-12-20T13:45:30;9.18;;;4.05;;
40046;SDS011;31510;48.122;11.576;2022-12-20T13:48:03;8.23;;;4.88;;
40046;SDS011;31510;48.122;11.576;2022-12-20T13:50:32;11.30;;;4.20;;
40046;SDS011;31510;48.122;11.576;2022-12-20T13:53:04;8.98;;;4.47;;
40046;SDS011;31510;48.122;11.576;2022-12-20T13:55:33;7.20;;;3.95;;
40046;SDS011;31510;48.122;11.576;2022-12-20T13:58:04;7.80;;;3.97;;
40046;SDS011;31510;48.122;11.576;2022-12-20T14:00:31;11.55;;;4.72;;
40046;SDS011;31510;48.122;11.576;2022-12-20T14:02:57;9.95;;;4.57;;
40046;SDS011;31510;48.122;11.576;2022-12-20T14:05:26;12.10;;;5.63;;
40046;SDS011;31510;48.122;11.576;2022-12-20T14:07:58;8.82;;;5.13;;
40046;SDS011;31510;48.122;11.576;2022-12-20T14:10:25;8.13;;;4.18;;
40046;SDS011;31510;48.122;11.576;2022-12-20T14:12:53;8.57;;;4.70;;
40046;SDS011;31510;48.122;11.576;2022-12-20T14:15:34;7.07;;;3.97;;
40046;SDS011;31510;48.122;11.576;2022-12-20T14:20:43;7.97;;;4.22;;
40046;SDS011;31510;48.122;11.576;2022-12-20T14:23:15;9.18;;;4.22;;
40046;SDS011;31510;48.122;11.576;2022-12-20T14:28:28;8.20;;;3.78;;
40046;SDS011;31510;48.122;11.576;2022-12-20T14:30:59;14.20;;;5.22;;
40046;SDS011;31510;48.122;11.576;2022-12-20T14:33:36;10.13;;;4.18;;
40046;SDS011;31510;48.122;11.576;2022-12-20T14:36:21;11.18;;;4.93;;
40046;SDS011;31510;48.122;11.576;2022-12-20T14:38:47;9.85;;;4.28;;
40046;SDS011;31510;48.122;11.576;2022-12-20T14:46:31;10.15;;;5.55;;
40046;SDS011;31510;48.122;11.576;2022-12-20T14:49:05;10.45;;;4.70;;
40046;SDS011;31510;48.122;11.576;2022-12-20T14:51:40;9.07;;;4.90;;
40046;SDS011;31510;48.122;11.576;2022-12-20T14:54:05;9.50;;;4.63;;
40046;SDS011;31510;48.122;11.576;2022-12-20T14:56:31;9.23;;;4.68;;
40046;SDS011;31510;48.122;11.576;2022-12-20T14:59:16;10.68;;;4.82;;
40046;SDS011;31510;48.122;11.576;2022-12-20T15:01:49;10.90;;;5.40;;
40046;SDS011;31510;48.122;11.576;2022-12-20T15:04:22;9.15;;;5.43;;
40046;SDS011;31510;48.122;11.576;2022-12-20T15:06:48;11.40;;;5.75;;
40046;SDS011;31510;48.122;11.576;2022-12-20T15:09:14;10.82;;;5.65;;
40046;SDS011;31510;48.122;11.576;2022-12-20T15:11:40;16.35;;;6.05;;
40046;SDS011;31510;48.122;11.576;2022-12-20T15:16:54;11.55;;;5.05;;
40046;SDS011;31510;48.122;11.576;2022-12-20T15:19:19;9.27;;;4.95;;
40046;SDS011;31510;48.122;11.576;2022-12-20T15:21:45;9.45;;;4.80;;
40046;SDS011;31510;48.122;11.576;2022-12-20T15:24:12;8.70;;;5.15;;
40046;SDS011;31510;48.122;11.576;2022-12-20T15:26:39;9.52;;;4.75;;
40046;SDS011;31510;48.122;11.576;2022-12-20T15:29:05;12.55;;;5.80;;
40046;SDS011;31510;48.122;11.576;2022-12-20T15:31:32;14.80;;;5.85;;
40046;SDS011;31510;48.122;11.576;2022-12-20T15:33:59;9.65;;;5.25;;
40046;SDS011;31510;48.122;11.576;2022-12-20T15:36:27;44.20;;;20.80;;
40046;SDS011;31510;48.122;11.576;2022-12-20T15:38:54;38.58;;;15.75;;
40046;SDS011;31510;48.122;11.576;2022-12-20T15:41:21;40.13;;;15.13;;
40046;SDS011;31510;48.122;11.576;2022-12-20T15:44:15;39.70;;;15.05;;
40046;SDS011;31510;48.122;11.576;2022-12-20T15:46:43;30.45;;;11.80;;
40046;SDS011;31510;48.122;11.576;2022-12-20T15:49:12;38.85;;;14.95;;
40046;SDS011;31510;48.122;11.576;2022-12-20T15:54:22;22.92;;;12.65;;
40046;SDS011;31510;48.122;11.576;2022-12-20T15:57:00;15.73;;;7.95;;
40046;SDS011;31510;48.122;11.576;2022-12-20T15:59:28;13.32;;;6.85;;
40046;SDS011;31510;48.122;11.576;2022-12-20T16:01:53;11.05;;;5.93;;
40046;SDS011;31510;48.122;11.576;2022-12-20T16:04:19;10.35;;;6.22;;
40046;SDS011;31510;48.122;11.576;2022-12-20T16:06:46;7.35;;;4.53;;
40046;SDS011;31510;48.122;11.576;2022-12-20T16:09:13;10.98;;;5.28;;
40046;SDS011;31510;48.122;11.576;2022-12-20T16:11:39;9.85;;;4.97;;
40046;SDS011;31510;48.122;11.576;2022-12-20T16:14:05;7.82;;;4.68;;
40046;SDS011;31510;48.122;11.576;2022-12-20T16:16:34;8.80;;;4.75;;
40046;SDS011;31510;48.122;11.576;2022-12-20T16:19:00;8.85;;;4.68;;
40046;SDS011;31510;48.122;11.576;2022-12-20T16:21:31;9.05;;;4.93;;
40046;SDS011;31510;48.122;11.576;2022-12-20T16:24:00;11.52;;;6.57;;
40046;SDS011;31510;48.122;11.576;2022-12-20T16:26:26;10.80;;;5.50;;
40046;SDS011;31510;48.122;11.576;2022-12-20T16:28:52;14.07;;;7.20;;
40046;SDS011;31510;48.122;11.576;2022-12-20T16:31:22;15.32;;;7.20;;
40046;SDS011;31510;48.122;11.576;2022-12-20T16:33:50;18.10;;;7.10;;
40046;SDS011;31510;48.122;11.576;2022-12-20T16:36:16;26.02;;;11.85;;
40046;SDS011;31510;48.122;11.576;2022-12-20T16:38:42;23.48;;;12.27;;
40046;SDS011;31510;48.122;11.576;2022-12-20T16:41:14;18.80;;;9.25;;
40046;SDS011;31510;48.122;11.576;2022-12-20T16:43:42;12.73;;;6.85;;
40046;SDS011;31510;48.122;11.576;2022-12-20T16:46:15;12.02;;;6.47;;
40046;SDS011;31510;48.122;11.576;2022-12-20T16:48:42;11.27;;;6.22;;
40046;SDS011;31510;48.122;11.576;2022-12-20T16:51:19;12.65;;;6.93;;
40046;SDS011;31510;48.122;11.576;2022-12-20T16:53:51;9.77;;;6.07;;